sensor_id;sensor_type;location;lat;lon;timestamp;P1;durP1;ratioP1;P2;durP2;ratioP2
1699;SDS011;847;48.058;7.810;2023-04-06T00:00:25;7.30;;;4.90;;
1699;SDS011;847;48.058;7.810;2023-04-06T00:02:52;4.90;;;4.40;;
1699;SDS011;847;48.058;7.810;2023-04-06T00:05:19;5.67;;;4.80;;
1699;SDS011;847;48.058;7.810;2023-04-06T00:07:46;6.93;;;5.30;;
1699;SDS011;847;48.058;7.810;2023-04-06T00:10:15;5.50;;;4.97;;
1699;SDS011;847;48.058;7.810;2023-04-06T00:12:41;6.00;;;5.40;;
1699;SDS011;847;48.058;7.810;2023-04-06T00:15:09;5.27;;;4.70;;
1699;SDS011;847;48.058;7.810;2023-04-06T00:17:36;4.80;;;4.30;;
1699;SDS011;847;48.058;7.810;2023-04-06T00:20:03;6.80;;;5.20;;
1699;SDS011;847;48.058;7.810;2023-04-06T00:22:31;5.57;;;5.00;;
1699;SDS011;847;48.058;7.810;2023-04-06T00:24:58;6.00;;;5.40;;
1699;SDS011;847;48.058;7.810;2023-04-06T00:27:26;5.10;;;4.60;;
1699;SDS011;847;48.058;7.810;2023-04-06T00:29:53;5.97;;;4.90;;
1699;SDS011;847;48.058;7.810;2023-04-06T00:32:20;6.50;;;5.37;;
1699;SDS011;847;48.058;7.810;2023-04-06T00:34:46;5.10;;;4.60;;
1699;SDS011;847;48.058;7.810;2023-04-06T00:37:13;5.43;;;4.90;;
1699;SDS011;847;48.058;7.810;2023-04-06T00:39:40;5.87;;;4.77;;
1699;SDS011;847;48.058;7.810;2023-04-06T00:42:07;5.37;;;4.43;;
1699;SDS011;847;48.058;7.810;2023-04-06T00:44:40;5.13;;;4.63;;
1699;SDS011;847;48.058;7.810;2023-04-06T00:47:07;9.00;;;5.80;;
1699;SDS011;847;48.058;7.810;2023-04-06T00:49:34;5.30;;;4.80;;
1699;SDS011;847;48.058;7.810;2023-04-06T00:52:01;6.53;;;4.40;;
1699;SDS011;847;48.058;7.810;2023-04-06T00:54:30;5.70;;;5.00;;
1699;SDS011;847;48.058;7.810;2023-04-06T00:56:57;4.60;;;4.20;;
1699;SDS011;847;48.058;7.810;2023-04-06T00:59:24;5.00;;;4.50;;
1699;SDS011;847;48.058;7.810;2023-04-06T01:01:53;5.60;;;4.80;;
1699;SDS011;847;48.058;7.810;2023-04-06T01:04:20;6.70;;;4.90;;
1699;SDS011;847;48.058;7.810;2023-04-06T01:06:48;7.13;;;5.07;;
1699;SDS011;847;48.058;7.810;2023-04-06T01:09:15;6.40;;;5.43;;
1699;SDS011;847;48.058;7.810;2023-04-06T01:11:42;6.63;;;5.40;;
1699;SDS011;847;48.058;7.810;2023-04-06T01:14:09;5.80;;;5.27;;
1699;SDS011;847;48.058;7.810;2023-04-06T01:16:36;6.80;;;6.10;;
1699;SDS011;847;48.058;7.810;2023-04-06T01:19:08;7.00;;;5.30;;
1699;SDS011;847;48.058;7.810;2023-04-06T01:21:35;7.90;;;5.87;;
1699;SDS011;847;48.058;7.810;2023-04-06T01:24:04;12.23;;;6.50;;
1699;SDS011;847;48.058;7.810;2023-04-06T01:26:31;6.70;;;5.97;;
1699;SDS011;847;48.058;7.810;2023-04-06T01:28:58;7.73;;;5.63;;
1699;SDS011;847;48.058;7.810;2023-04-06T01:31:25;6.37;;;5.60;;
1699;SDS011;847;48.058;7.810;2023-04-06T01:33:53;8.33;;;5.70;;
1699;SDS011;847;48.058;7.810;2023-04-06T01:36:20;6.00;;;5.40;;
1699;SDS011;847;48.058;7.810;2023-04-06T01:38:47;6.47;;;5.87;;
1699;SDS011;847;48.058;7.810;2023-04-06T01:41:16;9.10;;;6.10;;
1699;SDS011;847;48.058;7.810;2023-04-06T01:43:42;7.70;;;5.80;;
1699;SDS011;847;48.058;7.810;2023-04-06T01:46:10;7.33;;;6.20;;
1699;SDS011;847;48.058;7.810;2023-04-06T01:48:37;6.03;;;5.50;;
1699;SDS011;847;48.058;7.810;2023-04-06T01:51:03;6.00;;;5.40;;
1699;SDS011;847;48.058;7.810;2023-04-06T01:53:30;6.77;;;6.10;;
1699;SDS011;847;48.058;7.810;2023-04-06T01:55:57;8.13;;;6.20;;
1699;SDS011;847;48.058;7.810;2023-04-06T01:58:25;6.03;;;5.13;;
1699;SDS011;847;48.058;7.810;2023-04-06T02:00:52;8.43;;;6.00;;
1699;SDS011;847;48.058;7.810;2023-04-06T02:03:19;5.83;;;5.23;;
1699;SDS011;847;48.058;7.810;2023-04-06T02:05:46;7.40;;;5.93;;
1699;SDS011;847;48.058;7.810;2023-04-06T02:08:12;7.47;;;5.70;;
1699;SDS011;847;48.058;7.810;2023-04-06T02:10:39;9.77;;;5.57;;
1699;SDS011;847;48.058;7.810;2023-04-06T02:13:06;6.00;;;5.43;;
1699;SDS011;847;48.058;7.810;2023-04-06T02:15:34;7.00;;;6.30;;
1699;SDS011;847;48.058;7.810;2023-04-06T02:18:01;7.57;;;5.40;;
1699;SDS011;847;48.058;7.810;2023-04-06T02:20:27;5.57;;;5.03;;
1699;SDS011;847;48.058;7.810;2023-04-06T02:22:56;6.30;;;5.43;;
1699;SDS011;847;48.058;7.810;2023-04-06T02:25:24;6.43;;;5.73;;
1699;SDS011;847;48.058;7.810;2023-04-06T02:27:51;6.37;;;5.30;;
1699;SDS011;847;48.058;7.810;2023-04-06T02:30:18;6.13;;;5.40;;
1699;SDS011;847;48.058;7.810;2023-04-06T02:32:46;5.70;;;5.10;;
1699;SDS011;847;48.058;7.810;2023-04-06T02:35:13;6.30;;;5.67;;
1699;SDS011;847;48.058;7.810;2023-04-06T02:37:39;5.73;;;5.13;;
1699;SDS011;847;48.058;7.810;2023-04-06T02:40:07;7.77;;;6.50;;
1699;SDS011;847;48.058;7.810;2023-04-06T02:42:34;7.43;;;5.50;;
1699;SDS011;847;48.058;7.810;2023-04-06T02:45:01;6.43;;;5.80;;
1699;SDS011;847;48.058;7.810;2023-04-06T02:47:28;6.40;;;4.83;;
1699;SDS011;847;48.058;7.810;2023-04-06T02:49:56;5.80;;;5.27;;
1699;SDS011;847;48.058;7.810;2023-04-06T02:52:23;5.40;;;4.97;;
1699;SDS011;847;48.058;7.810;2023-04-06T02:54:49;6.80;;;5.53;;
1699;SDS011;847;48.058;7.810;2023-04-06T02:57:16;6.47;;;5.30;;
1699;SDS011;847;48.058;7.810;2023-04-06T02:59:43;5.60;;;5.10;;
1699;SDS011;847;48.058;7.810;2023-04-06T03:02:10;6.03;;;4.97;;
1699;SDS011;847;48.058;7.810;2023-04-06T03:04:36;7.07;;;6.37;;
1699;SDS011;847;48.058;7.810;2023-04-06T03:07:05;5.07;;;4.67;;
1699;SDS011;847;48.058;7.810;2023-04-06T03:09:31;6.13;;;4.90;;
1699;SDS011;847;48.058;7.810;2023-04-06T03:11:58;8.90;;;6.07;;
1699;SDS011;847;48.058;7.810;2023-04-06T03:14:25;7.30;;;5.60;;
1699;SDS011;847;48.058;7.810;2023-04-06T03:16:53;7.77;;;5.80;;
1699;SDS011;847;48.058;7.810;2023-04-06T03:19:20;5.43;;;4.93;;
1699;SDS011;847;48.058;7.810;2023-04-06T03:21:46;7.00;;;5.73;;
1699;SDS011;847;48.058;7.810;2023-04-06T03:24:14;6.47;;;5.57;;
1699;SDS011;847;48.058;7.810;2023-04-06T03:26:41;6.17;;;5.03;;
1699;SDS011;847;48.058;7.810;2023-04-06T03:29:08;5.80;;;4.83;;
1699;SDS011;847;48.058;7.810;2023-04-06T03:31:35;5.67;;;4.90;;
1699;SDS011;847;48.058;7.810;2023-04-06T03:34:01;6.43;;;5.60;;
1699;SDS011;847;48.058;7.810;2023-04-06T03:36:28;5.17;;;4.77;;
1699;SDS011;847;48.058;7.810;2023-04-06T03:38:55;7.90;;;5.50;;
1699;SDS011;847;48.058;7.810;2023-04-06T03:41:23;6.23;;;5.57;;
1699;SDS011;847;48.058;7.810;2023-04-06T03:43:51;5.93;;;5.33;;
1699;SDS011;847;48.058;7.810;2023-04-06T03:46:18;5.83;;;4.80;;
1699;SDS011;847;48.058;7.810;2023-04-06T03:48:45;9.87;;;5.60;;
1699;SDS011;847;48.058;7.810;2023-04-06T03:51:14;5.50;;;5.00;;
1699;SDS011;847;48.058;7.810;2023-04-06T03:53:41;7.97;;;6.20;;
1699;SDS011;847;48.058;7.810;2023-04-06T03:56:08;5.90;;;5.23;;
1699;SDS011;847;48.058;7.810;2023-04-06T03:58:36;7.23;;;6.00;;
1699;SDS011;847;48.058;7.810;2023-04-06T04:01:03;5.50;;;5.00;;
1699;SDS011;847;48.058;7.810;2023-04-06T04:03:29;7.37;;;5.17;;
1699;SDS011;847;48.058;7.810;2023-04-06T04:05:56;7.30;;;5.73;;
1699;SDS011;847;48.058;7.810;2023-04-06T04:08:23;6.33;;;4.90;;
1699;SDS011;847;48.058;7.810;2023-04-06T04:10:50;7.50;;;5.97;;
1699;SDS011;847;48.058;7.810;2023-04-06T04:13:17;8.07;;;6.03;;
1699;SDS011;847;48.058;7.810;2023-04-06T04:15:45;7.73;;;6.70;;
1699;SDS011;847;48.058;7.810;2023-04-06T04:18:12;9.77;;;7.20;;
1699;SDS011;847;48.058;7.810;2023-04-06T04:20:39;7.40;;;6.00;;
1699;SDS011;847;48.058;7.810;2023-04-06T04:23:06;9.97;;;6.50;;
1699;SDS011;847;48.058;7.810;2023-04-06T04:25:33;6.03;;;5.47;;
1699;SDS011;847;48.058;7.810;2023-04-06T04:28:00;7.00;;;6.10;;
1699;SDS011;847;48.058;7.810;2023-04-06T04:30:26;6.53;;;5.10;;
1699;SDS011;847;48.058;7.810;2023-04-06T04:32:54;10.87;;;6.00;;
1699;SDS011;847;48.058;7.810;2023-04-06T04:35:21;8.40;;;6.40;;
1699;SDS011;847;48.058;7.810;2023-04-06T04:37:48;6.03;;;5.50;;
1699;SDS011;847;48.058;7.810;2023-04-06T04:40:15;6.03;;;5.10;;
1699;SDS011;847;48.058;7.810;2023-04-06T04:42:42;6.00;;;5.50;;
1699;SDS011;847;48.058;7.810;2023-04-06T04:45:09;7.57;;;4.97;;
1699;SDS011;847;48.058;7.810;2023-04-06T04:47:36;7.20;;;5.33;;
1699;SDS011;847;48.058;7.810;2023-04-06T04:50:05;5.47;;;4.97;;
1699;SDS011;847;48.058;7.810;2023-04-06T04:52:32;7.13;;;5.53;;
1699;SDS011;847;48.058;7.810;2023-04-06T04:54:59;6.80;;;5.53;;
1699;SDS011;847;48.058;7.810;2023-04-06T04:57:25;6.50;;;5.87;;
1699;SDS011;847;48.058;7.810;2023-04-06T04:59:52;7.47;;;6.37;;
1699;SDS011;847;48.058;7.810;2023-04-06T05:02:19;7.13;;;5.53;;
1699;SDS011;847;48.058;7.810;2023-04-06T05:04:46;6.93;;;6.17;;
1699;SDS011;847;48.058;7.810;2023-04-06T05:07:14;10.50;;;6.57;;
1699;SDS011;847;48.058;7.810;2023-04-06T05:09:43;9.10;;;6.90;;
1699;SDS011;847;48.058;7.810;2023-04-06T05:12:10;7.90;;;7.10;;
1699;SDS011;847;48.058;7.810;2023-04-06T05:14:37;8.67;;;6.40;;
1699;SDS011;847;48.058;7.810;2023-04-06T05:17:04;6.63;;;5.93;;
1699;SDS011;847;48.058;7.810;2023-04-06T05:19:30;6.87;;;6.27;;
1699;SDS011;847;48.058;7.810;2023-04-06T05:21:57;10.23;;;5.77;;
1699;SDS011;847;48.058;7.810;2023-04-06T05:24:25;7.40;;;5.20;;
1699;SDS011;847;48.058;7.810;2023-04-06T05:26:52;7.60;;;5.40;;
1699;SDS011;847;48.058;7.810;2023-04-06T05:29:19;5.97;;;5.27;;
1699;SDS011;847;48.058;7.810;2023-04-06T05:31:46;8.97;;;6.40;;
1699;SDS011;847;48.058;7.810;2023-04-06T05:34:13;9.57;;;5.83;;
1699;SDS011;847;48.058;7.810;2023-04-06T05:36:40;10.30;;;5.50;;
1699;SDS011;847;48.058;7.810;2023-04-06T05:39:07;6.53;;;5.60;;
1699;SDS011;847;48.058;7.810;2023-04-06T05:41:35;7.87;;;6.27;;
1699;SDS011;847;48.058;7.810;2023-04-06T05:44:01;9.63;;;5.93;;
1699;SDS011;847;48.058;7.810;2023-04-06T05:46:28;11.20;;;6.77;;
1699;SDS011;847;48.058;7.810;2023-04-06T05:48:55;7.87;;;6.63;;
1699;SDS011;847;48.058;7.810;2023-04-06T05:51:22;7.20;;;6.50;;
1699;SDS011;847;48.058;7.810;2023-04-06T05:53:49;7.40;;;6.27;;
1699;SDS011;847;48.058;7.810;2023-04-06T05:56:15;9.10;;;6.73;;
1699;SDS011;847;48.058;7.810;2023-04-06T05:58:43;9.07;;;6.80;;
1699;SDS011;847;48.058;7.810;2023-04-06T06:01:10;7.70;;;6.23;;
1699;SDS011;847;48.058;7.810;2023-04-06T06:03:37;8.13;;;6.50;;
1699;SDS011;847;48.058;7.810;2023-04-06T06:06:04;8.30;;;6.23;;
1699;SDS011;847;48.058;7.810;2023-04-06T06:08:31;8.23;;;7.03;;
1699;SDS011;847;48.058;7.810;2023-04-06T06:10:58;7.10;;;6.40;;
1699;SDS011;847;48.058;7.810;2023-04-06T06:13:25;7.37;;;6.33;;
1699;SDS011;847;48.058;7.810;2023-04-06T06:15:53;7.50;;;6.70;;
1699;SDS011;847;48.058;7.810;2023-04-06T06:18:20;11.30;;;7.57;;
1699;SDS011;847;48.058;7.810;2023-04-06T06:20:47;11.33;;;9.10;;
1699;SDS011;847;48.058;7.810;2023-04-06T06:23:14;9.17;;;8.00;;
1699;SDS011;847;48.058;7.810;2023-04-06T06:25:40;7.70;;;6.90;;
1699;SDS011;847;48.058;7.810;2023-04-06T06:28:07;10.13;;;8.63;;
1699;SDS011;847;48.058;7.810;2023-04-06T06:30:34;11.43;;;9.60;;
1699;SDS011;847;48.058;7.810;2023-04-06T06:33:02;7.67;;;6.70;;
1699;SDS011;847;48.058;7.810;2023-04-06T06:35:29;10.73;;;7.30;;
1699;SDS011;847;48.058;7.810;2023-04-06T06:37:56;8.67;;;6.30;;
1699;SDS011;847;48.058;7.810;2023-04-06T06:40:22;6.93;;;6.23;;
1699;SDS011;847;48.058;7.810;2023-04-06T06:42:51;9.50;;;6.73;;
1699;SDS011;847;48.058;7.810;2023-04-06T06:45:17;7.20;;;6.40;;
1699;SDS011;847;48.058;7.810;2023-04-06T06:47:45;7.87;;;6.03;;
1699;SDS011;847;48.058;7.810;2023-04-06T06:50:13;8.37;;;5.93;;
1699;SDS011;847;48.058;7.810;2023-04-06T06:52:40;6.77;;;5.93;;
1699;SDS011;847;48.058;7.810;2023-04-06T06:55:08;7.50;;;6.30;;
1699;SDS011;847;48.058;7.810;2023-04-06T06:57:35;7.30;;;6.17;;
1699;SDS011;847;48.058;7.810;2023-04-06T07:00:03;9.00;;;6.80;;
1699;SDS011;847;48.058;7.810;2023-04-06T07:02:31;9.00;;;6.30;;
1699;SDS011;847;48.058;7.810;2023-04-06T07:05:00;6.80;;;6.10;;
1699;SDS011;847;48.058;7.810;2023-04-06T07:07:28;6.87;;;5.70;;
1699;SDS011;847;48.058;7.810;2023-04-06T07:09:55;6.57;;;5.97;;
1699;SDS011;847;48.058;7.810;2023-04-06T07:12:22;7.37;;;6.13;;
1699;SDS011;847;48.058;7.810;2023-04-06T07:14:49;10.83;;;6.13;;
1699;SDS011;847;48.058;7.810;2023-04-06T07:17:15;7.13;;;6.43;;
1699;SDS011;847;48.058;7.810;2023-04-06T07:19:42;6.70;;;5.43;;
1699;SDS011;847;48.058;7.810;2023-04-06T07:22:10;6.10;;;5.50;;
1699;SDS011;847;48.058;7.810;2023-04-06T07:24:40;6.20;;;5.60;;
1699;SDS011;847;48.058;7.810;2023-04-06T07:27:07;6.37;;;5.77;;
1699;SDS011;847;48.058;7.810;2023-04-06T07:29:34;8.23;;;5.87;;
1699;SDS011;847;48.058;7.810;2023-04-06T07:32:01;6.90;;;5.40;;
1699;SDS011;847;48.058;7.810;2023-04-06T07:34:27;7.37;;;6.60;;
1699;SDS011;847;48.058;7.810;2023-04-06T07:36:54;7.93;;;7.13;;
1699;SDS011;847;48.058;7.810;2023-04-06T07:39:21;6.07;;;5.50;;
1699;SDS011;847;48.058;7.810;2023-04-06T07:41:49;6.13;;;5.53;;
1699;SDS011;847;48.058;7.810;2023-04-06T07:44:16;6.77;;;6.17;;
1699;SDS011;847;48.058;7.810;2023-04-06T07:46:43;8.10;;;6.10;;
1699;SDS011;847;48.058;7.810;2023-04-06T07:49:10;8.90;;;6.50;;
1699;SDS011;847;48.058;7.810;2023-04-06T07:51:37;7.17;;;6.10;;
1699;SDS011;847;48.058;7.810;2023-04-06T07:54:04;8.97;;;6.97;;
1699;SDS011;847;48.058;7.810;2023-04-06T07:56:31;8.10;;;6.80;;
1699;SDS011;847;48.058;7.810;2023-04-06T07:58:59;7.23;;;6.50;;
1699;SDS011;847;48.058;7.810;2023-04-06T08:01:27;6.50;;;5.87;;
1699;SDS011;847;48.058;7.810;2023-04-06T08:03:54;7.40;;;6.20;;
1699;SDS011;847;48.058;7.810;2023-04-06T08:06:21;8.33;;;7.00;;
1699;SDS011;847;48.058;7.810;2023-04-06T08:08:48;8.13;;;7.33;;
1699;SDS011;847;48.058;7.810;2023-04-06T08:11:15;8.53;;;7.73;;
1699;SDS011;847;48.058;7.810;2023-04-06T08:13:42;7.80;;;7.00;;
1699;SDS011;847;48.058;7.810;2023-04-06T08:16:10;9.03;;;6.60;;
1699;SDS011;847;48.058;7.810;2023-04-06T08:18:37;7.03;;;6.00;;
1699;SDS011;847;48.058;7.810;2023-04-06T08:21:04;8.10;;;6.50;;
1699;SDS011;847;48.058;7.810;2023-04-06T08:23:33;7.43;;;6.70;;
1699;SDS011;847;48.058;7.810;2023-04-06T08:26:00;6.93;;;6.20;;
1699;SDS011;847;48.058;7.810;2023-04-06T08:28:26;6.77;;;6.03;;
1699;SDS011;847;48.058;7.810;2023-04-06T08:30:53;8.10;;;6.60;;
1699;SDS011;847;48.058;7.810;2023-04-06T08:33:22;7.60;;;5.87;;
1699;SDS011;847;48.058;7.810;2023-04-06T08:35:48;9.90;;;6.33;;
1699;SDS011;847;48.058;7.810;2023-04-06T08:38:15;6.40;;;5.80;;
1699;SDS011;847;48.058;7.810;2023-04-06T08:40:42;8.67;;;6.80;;
1699;SDS011;847;48.058;7.810;2023-04-06T08:43:12;8.53;;;6.23;;
1699;SDS011;847;48.058;7.810;2023-04-06T08:45:40;14.37;;;11.43;;
1699;SDS011;847;48.058;7.810;2023-04-06T08:48:08;11.83;;;7.00;;
1699;SDS011;847;48.058;7.810;2023-04-06T08:50:37;10.17;;;7.37;;
1699;SDS011;847;48.058;7.810;2023-04-06T08:53:05;7.33;;;6.63;;
1699;SDS011;847;48.058;7.810;2023-04-06T08:55:33;7.40;;;6.40;;
1699;SDS011;847;48.058;7.810;2023-04-06T08:58:00;7.47;;;6.50;;
1699;SDS011;847;48.058;7.810;2023-04-06T09:00:27;7.00;;;6.30;;
1699;SDS011;847;48.058;7.810;2023-04-06T09:02:55;6.90;;;5.30;;
1699;SDS011;847;48.058;7.810;2023-04-06T09:05:23;6.83;;;6.17;;
1699;SDS011;847;48.058;7.810;2023-04-06T09:07:52;6.30;;;5.70;;
1699;SDS011;847;48.058;7.810;2023-04-06T09:10:19;6.70;;;6.00;;
1699;SDS011;847;48.058;7.810;2023-04-06T09:12:48;6.27;;;5.27;;
1699;SDS011;847;48.058;7.810;2023-04-06T09:15:18;6.43;;;5.77;;
1699;SDS011;847;48.058;7.810;2023-04-06T09:17:46;5.10;;;4.60;;
1699;SDS011;847;48.058;7.810;2023-04-06T09:20:12;6.03;;;5.20;;
1699;SDS011;847;48.058;7.810;2023-04-06T09:22:40;6.90;;;5.77;;
1699;SDS011;847;48.058;7.810;2023-04-06T09:25:09;4.93;;;4.23;;
1699;SDS011;847;48.058;7.810;2023-04-06T09:27:45;6.37;;;5.60;;
1699;SDS011;847;48.058;7.810;2023-04-06T09:30:13;8.03;;;5.67;;
1699;SDS011;847;48.058;7.810;2023-04-06T09:32:48;6.80;;;5.80;;
1699;SDS011;847;48.058;7.810;2023-04-06T09:35:15;6.83;;;5.33;;
1699;SDS011;847;48.058;7.810;2023-04-06T09:37:45;10.43;;;7.10;;
1699;SDS011;847;48.058;7.810;2023-04-06T09:40:14;8.43;;;6.97;;
1699;SDS011;847;48.058;7.810;2023-04-06T09:42:42;7.73;;;5.03;;
1699;SDS011;847;48.058;7.810;2023-04-06T09:45:11;7.80;;;6.33;;
1699;SDS011;847;48.058;7.810;2023-04-06T09:47:39;11.00;;;7.07;;
1699;SDS011;847;48.058;7.810;2023-04-06T09:50:09;7.33;;;6.63;;
1699;SDS011;847;48.058;7.810;2023-04-06T10:00:28;6.60;;;5.87;;
1699;SDS011;847;48.058;7.810;2023-04-06T10:08:09;9.10;;;6.23;;
1699;SDS011;847;48.058;7.810;2023-04-06T10:10:36;6.40;;;5.70;;
1699;SDS011;847;48.058;7.810;2023-04-06T10:13:04;6.90;;;5.77;;
1699;SDS011;847;48.058;7.810;2023-04-06T10:15:32;6.07;;;5.17;;
1699;SDS011;847;48.058;7.810;2023-04-06T10:18:00;12.90;;;6.07;;
1699;SDS011;847;48.058;7.810;2023-04-06T10:20:29;11.53;;;8.63;;
1699;SDS011;847;48.058;7.810;2023-04-06T10:23:07;16.10;;;12.50;;
1699;SDS011;847;48.058;7.810;2023-04-06T10:25:39;8.67;;;6.33;;
1699;SDS011;847;48.058;7.810;2023-04-06T10:28:06;7.43;;;6.10;;
1699;SDS011;847;48.058;7.810;2023-04-06T10:30:37;9.43;;;6.03;;
1699;SDS011;847;48.058;7.810;2023-04-06T10:33:14;7.70;;;6.63;;
1699;SDS011;847;48.058;7.810;2023-04-06T10:35:45;7.23;;;6.10;;
1699;SDS011;847;48.058;7.810;2023-04-06T10:38:15;9.30;;;6.23;;
1699;SDS011;847;48.058;7.810;2023-04-06T10:40:46;6.70;;;6.00;;
1699;SDS011;847;48.058;7.810;2023-04-06T10:43:18;7.90;;;6.40;;
1699;SDS011;847;48.058;7.810;2023-04-06T10:45:54;6.83;;;5.73;;
1699;SDS011;847;48.058;7.810;2023-04-06T10:48:22;8.83;;;5.27;;
1699;SDS011;847;48.058;7.810;2023-04-06T10:50:51;8.23;;;5.67;;
1699;SDS011;847;48.058;7.810;2023-04-06T10:53:23;6.23;;;5.60;;
1699;SDS011;847;48.058;7.810;2023-04-06T10:55:51;5.50;;;4.90;;
1699;SDS011;847;48.058;7.810;2023-04-06T10:58:19;5.70;;;4.60;;
1699;SDS011;847;48.058;7.810;2023-04-06T11:00:47;9.20;;;5.77;;
1699;SDS011;847;48.058;7.810;2023-04-06T11:03:16;7.30;;;5.40;;
1699;SDS011;847;48.058;7.810;2023-04-06T11:05:43;7.13;;;5.23;;
1699;SDS011;847;48.058;7.810;2023-04-06T11:08:21;7.87;;;6.77;;
1699;SDS011;847;48.058;7.810;2023-04-06T11:10:48;5.90;;;4.80;;
1699;SDS011;847;48.058;7.810;2023-04-06T11:13:15;7.43;;;5.30;;
1699;SDS011;847;48.058;7.810;2023-04-06T11:15:42;6.90;;;5.83;;
1699;SDS011;847;48.058;7.810;2023-04-06T11:18:09;6.07;;;5.10;;
1699;SDS011;847;48.058;7.810;2023-04-06T11:20:38;7.20;;;4.60;;
1699;SDS011;847;48.058;7.810;2023-04-06T11:23:05;7.43;;;5.30;;
1699;SDS011;847;48.058;7.810;2023-04-06T11:25:31;7.50;;;6.10;;
1699;SDS011;847;48.058;7.810;2023-04-06T11:27:58;6.40;;;5.60;;
1699;SDS011;847;48.058;7.810;2023-04-06T11:30:25;8.00;;;6.07;;
1699;SDS011;847;48.058;7.810;2023-04-06T11:32:59;8.67;;;6.20;;
1699;SDS011;847;48.058;7.810;2023-04-06T11:35:27;10.43;;;6.37;;
1699;SDS011;847;48.058;7.810;2023-04-06T11:37:59;10.60;;;7.23;;
1699;SDS011;847;48.058;7.810;2023-04-06T11:40:29;6.77;;;5.87;;
1699;SDS011;847;48.058;7.810;2023-04-06T11:42:58;14.93;;;6.83;;
1699;SDS011;847;48.058;7.810;2023-04-06T11:45:24;12.37;;;6.13;;
1699;SDS011;847;48.058;7.810;2023-04-06T11:47:57;6.43;;;5.70;;
1699;SDS011;847;48.058;7.810;2023-04-06T11:50:25;7.80;;;5.97;;
1699;SDS011;847;48.058;7.810;2023-04-06T11:52:59;10.20;;;5.77;;
1699;SDS011;847;48.058;7.810;2023-04-06T11:55:27;7.47;;;6.20;;
1699;SDS011;847;48.058;7.810;2023-04-06T11:57:54;8.30;;;6.03;;
1699;SDS011;847;48.058;7.810;2023-04-06T12:00:22;7.07;;;5.27;;
1699;SDS011;847;48.058;7.810;2023-04-06T12:02:49;6.43;;;5.43;;
1699;SDS011;847;48.058;7.810;2023-04-06T12:05:15;6.70;;;5.00;;
1699;SDS011;847;48.058;7.810;2023-04-06T12:07:42;7.30;;;5.70;;
1699;SDS011;847;48.058;7.810;2023-04-06T12:10:11;6.37;;;4.97;;
1699;SDS011;847;48.058;7.810;2023-04-06T12:12:38;6.93;;;5.53;;
1699;SDS011;847;48.058;7.810;2023-04-06T12:15:06;7.97;;;5.70;;
1699;SDS011;847;48.058;7.810;2023-04-06T12:17:33;8.93;;;5.60;;
1699;SDS011;847;48.058;7.810;2023-04-06T12:20:00;7.37;;;5.23;;
1699;SDS011;847;48.058;7.810;2023-04-06T12:22:27;6.83;;;5.43;;
1699;SDS011;847;48.058;7.810;2023-04-06T12:24:54;7.93;;;5.60;;
1699;SDS011;847;48.058;7.810;2023-04-06T12:27:22;8.33;;;5.80;;
1699;SDS011;847;48.058;7.810;2023-04-06T12:29:50;7.70;;;5.40;;
1699;SDS011;847;48.058;7.810;2023-04-06T12:32:16;6.27;;;5.20;;
1699;SDS011;847;48.058;7.810;2023-04-06T12:34:44;7.43;;;5.30;;
1699;SDS011;847;48.058;7.810;2023-04-06T12:37:10;6.17;;;4.77;;
1699;SDS011;847;48.058;7.810;2023-04-06T12:39:37;7.37;;;5.73;;
1699;SDS011;847;48.058;7.810;2023-04-06T12:42:04;7.13;;;5.80;;
1699;SDS011;847;48.058;7.810;2023-04-06T12:44:33;6.80;;;5.77;;
1699;SDS011;847;48.058;7.810;2023-04-06T12:47:00;5.97;;;5.37;;
1699;SDS011;847;48.058;7.810;2023-04-06T12:49:27;7.50;;;5.80;;
1699;SDS011;847;48.058;7.810;2023-04-06T12:51:54;8.30;;;5.97;;
1699;SDS011;847;48.058;7.810;2023-04-06T12:54:20;5.97;;;5.33;;
1699;SDS011;847;48.058;7.810;2023-04-06T12:56:47;7.37;;;6.17;;
1699;SDS011;847;48.058;7.810;2023-04-06T12:59:14;7.30;;;5.37;;
1699;SDS011;847;48.058;7.810;2023-04-06T13:01:42;6.70;;;5.10;;
1699;SDS011;847;48.058;7.810;2023-04-06T13:04:10;5.53;;;4.37;;
1699;SDS011;847;48.058;7.810;2023-04-06T13:06:37;5.53;;;4.90;;
1699;SDS011;847;48.058;7.810;2023-04-06T13:09:04;5.43;;;4.23;;
1699;SDS011;847;48.058;7.810;2023-04-06T13:11:32;8.53;;;4.77;;
1699;SDS011;847;48.058;7.810;2023-04-06T13:13:59;6.30;;;5.30;;
1699;SDS011;847;48.058;7.810;2023-04-06T13:16:26;5.47;;;4.67;;
1699;SDS011;847;48.058;7.810;2023-04-06T13:18:54;5.73;;;4.63;;
1699;SDS011;847;48.058;7.810;2023-04-06T13:21:21;6.20;;;4.90;;
1699;SDS011;847;48.058;7.810;2023-04-06T13:23:48;7.67;;;6.07;;
1699;SDS011;847;48.058;7.810;2023-04-06T13:26:14;6.57;;;4.93;;
1699;SDS011;847;48.058;7.810;2023-04-06T13:28:42;6.70;;;5.27;;
1699;SDS011;847;48.058;7.810;2023-04-06T13:31:08;5.57;;;4.67;;
1699;SDS011;847;48.058;7.810;2023-04-06T13:33:35;6.30;;;5.03;;
1699;SDS011;847;48.058;7.810;2023-04-06T13:36:05;6.50;;;4.83;;
1699;SDS011;847;48.058;7.810;2023-04-06T13:38:33;6.30;;;5.00;;
1699;SDS011;847;48.058;7.810;2023-04-06T13:41:00;5.53;;;4.77;;
1699;SDS011;847;48.058;7.810;2023-04-06T13:43:26;4.70;;;4.23;;
1699;SDS011;847;48.058;7.810;2023-04-06T13:45:54;5.40;;;4.90;;
1699;SDS011;847;48.058;7.810;2023-04-06T13:48:23;7.27;;;4.77;;
1699;SDS011;847;48.058;7.810;2023-04-06T13:50:50;5.97;;;4.60;;
1699;SDS011;847;48.058;7.810;2023-04-06T13:53:19;7.03;;;4.83;;
1699;SDS011;847;48.058;7.810;2023-04-06T13:55:51;5.27;;;4.37;;
1699;SDS011;847;48.058;7.810;2023-04-06T13:58:18;6.03;;;5.00;;
1699;SDS011;847;48.058;7.810;2023-04-06T14:00:45;6.80;;;5.00;;
1699;SDS011;847;48.058;7.810;2023-04-06T14:03:12;5.87;;;4.47;;
1699;SDS011;847;48.058;7.810;2023-04-06T14:05:39;4.97;;;4.50;;
1699;SDS011;847;48.058;7.810;2023-04-06T14:08:05;6.00;;;4.40;;
1699;SDS011;847;48.058;7.810;2023-04-06T14:10:37;6.77;;;4.27;;
1699;SDS011;847;48.058;7.810;2023-04-06T14:13:05;5.63;;;4.87;;
1699;SDS011;847;48.058;7.810;2023-04-06T14:15:32;5.47;;;4.53;;
1699;SDS011;847;48.058;7.810;2023-04-06T14:17:59;5.27;;;4.10;;
1699;SDS011;847;48.058;7.810;2023-04-06T14:20:26;6.53;;;4.90;;
1699;SDS011;847;48.058;7.810;2023-04-06T14:22:53;6.10;;;5.10;;
1699;SDS011;847;48.058;7.810;2023-04-06T14:25:20;5.97;;;4.90;;
1699;SDS011;847;48.058;7.810;2023-04-06T14:27:48;6.30;;;4.80;;
1699;SDS011;847;48.058;7.810;2023-04-06T14:30:15;6.47;;;5.20;;
1699;SDS011;847;48.058;7.810;2023-04-06T14:32:42;5.67;;;3.73;;
1699;SDS011;847;48.058;7.810;2023-04-06T14:35:09;7.50;;;4.37;;
1699;SDS011;847;48.058;7.810;2023-04-06T14:37:36;4.97;;;4.47;;
1699;SDS011;847;48.058;7.810;2023-04-06T14:40:03;5.33;;;4.20;;
1699;SDS011;847;48.058;7.810;2023-04-06T14:42:31;5.00;;;4.27;;
1699;SDS011;847;48.058;7.810;2023-04-06T14:45:00;5.70;;;4.50;;
1699;SDS011;847;48.058;7.810;2023-04-06T14:47:26;6.60;;;4.40;;
1699;SDS011;847;48.058;7.810;2023-04-06T14:49:53;4.90;;;4.30;;
1699;SDS011;847;48.058;7.810;2023-04-06T14:52:20;6.27;;;4.60;;
1699;SDS011;847;48.058;7.810;2023-04-06T14:54:47;4.80;;;4.17;;
1699;SDS011;847;48.058;7.810;2023-04-06T14:57:13;5.67;;;3.93;;
1699;SDS011;847;48.058;7.810;2023-04-06T14:59:40;6.33;;;5.20;;
1699;SDS011;847;48.058;7.810;2023-04-06T15:02:08;6.37;;;5.63;;
1699;SDS011;847;48.058;7.810;2023-04-06T15:04:35;5.33;;;4.83;;
1699;SDS011;847;48.058;7.810;2023-04-06T15:07:02;5.80;;;4.50;;
1699;SDS011;847;48.058;7.810;2023-04-06T15:09:29;7.40;;;4.90;;
1699;SDS011;847;48.058;7.810;2023-04-06T15:11:56;7.20;;;4.80;;
1699;SDS011;847;48.058;7.810;2023-04-06T15:14:23;5.10;;;4.50;;
1699;SDS011;847;48.058;7.810;2023-04-06T15:16:49;8.33;;;5.60;;
1699;SDS011;847;48.058;7.810;2023-04-06T15:19:17;8.27;;;5.57;;
1699;SDS011;847;48.058;7.810;2023-04-06T15:21:46;6.50;;;5.00;;
1699;SDS011;847;48.058;7.810;2023-04-06T15:24:13;5.90;;;5.07;;
1699;SDS011;847;48.058;7.810;2023-04-06T15:26:40;9.17;;;5.30;;
1699;SDS011;847;48.058;7.810;2023-04-06T15:29:07;5.57;;;4.90;;
1699;SDS011;847;48.058;7.810;2023-04-06T15:31:33;5.10;;;4.60;;
1699;SDS011;847;48.058;7.810;2023-04-06T15:34:02;7.40;;;5.10;;
1699;SDS011;847;48.058;7.810;2023-04-06T15:36:30;5.17;;;4.67;;
1699;SDS011;847;48.058;7.810;2023-04-06T15:38:57;7.30;;;4.67;;
1699;SDS011;847;48.058;7.810;2023-04-06T15:41:24;6.10;;;4.77;;
1699;SDS011;847;48.058;7.810;2023-04-06T15:43:52;5.77;;;5.17;;